createdAt,value
2023-07-24T00:00:16.877Z,68.38
2023-07-24T00:02:43.606Z,68.48
2023-07-24T00:05:11.432Z,68.44
2023-07-24T00:07:38.293Z,68.23
2023-07-24T00:10:05.920Z,68.33
2023-07-24T00:12:32.888Z,68.10
2023-07-24T00:14:59.752Z,68.92
2023-07-24T00:17:26.639Z,68.53
2023-07-24T00:19:53.495Z,68.87
2023-07-24T00:22:20.194Z,68.89
2023-07-24T00:24:46.963Z,68.96
2023-07-24T00:27:15.030Z,69.54
2023-07-24T00:29:41.824Z,69.77
2023-07-24T00:32:08.981Z,70.22
2023-07-24T00:34:36.016Z,70.27
2023-07-24T00:37:03.079Z,70.28
2023-07-24T00:39:30.837Z,70.25
2023-07-24T00:41:57.943Z,70.53
2023-07-24T00:44:24.689Z,71.33
2023-07-24T00:46:51.713Z,71.36
2023-07-24T00:49:21.375Z,71.95
2023-07-24T00:51:48.705Z,72.62
2023-07-24T00:54:18.029Z,73.26
2023-07-24T00:56:46.885Z,74.27
2023-07-24T00:59:16.083Z,74.74
2023-07-24T01:01:43.916Z,75.43
2023-07-24T01:04:10.733Z,75.65
2023-07-24T01:06:37.516Z,76.04
2023-07-24T01:09:04.277Z,76.83
2023-07-24T01:11:37.319Z,77.32
2023-07-24T01:14:17.833Z,78.13
2023-07-24T01:16:46.334Z,78.43
2023-07-24T01:19:43.821Z,79.19
2023-07-24T01:22:17.123Z,78.73
2023-07-24T01:25:02.251Z,79.00
2023-07-24T01:27:29.008Z,80.29
2023-07-24T01:29:55.846Z,80.49
2023-07-24T01:32:22.947Z,80.82
2023-07-24T01:34:50.266Z,81.77
2023-07-24T01:37:18.066Z,82.08
2023-07-24T01:39:46.271Z,82.14
2023-07-24T01:42:13.992Z,82.17
2023-07-24T01:44:40.893Z,82.22
2023-07-24T01:47:07.915Z,81.90
2023-07-24T01:49:34.765Z,81.79
2023-07-24T01:52:01.503Z,81.59
2023-07-24T01:54:28.211Z,81.41
2023-07-24T01:56:54.945Z,81.05
2023-07-24T01:59:21.758Z,80.66
2023-07-24T02:01:48.622Z,80.67
2023-07-24T02:04:15.695Z,80.60
2023-07-24T02:06:42.518Z,80.74
2023-07-24T02:09:09.257Z,80.54
2023-07-24T02:11:36.028Z,80.69
2023-07-24T02:14:02.802Z,80.43
2023-07-24T02:16:29.893Z,80.03
2023-07-24T02:18:56.916Z,80.13
2023-07-24T02:21:23.632Z,79.98
2023-07-24T02:23:50.318Z,79.95
2023-07-24T02:26:17.063Z,80.88
2023-07-24T02:28:43.775Z,80.97
2023-07-24T02:31:10.635Z,80.35
2023-07-24T02:33:37.363Z,80.22
2023-07-24T02:36:04.352Z,83.03
2023-07-24T02:38:31.174Z,88.22
2023-07-24T02:40:58.430Z,89.37
2023-07-24T02:43:25.286Z,90.32
2023-07-24T02:45:52.117Z,90.79
2023-07-24T02:48:18.824Z,92.15
2023-07-24T02:50:45.524Z,94.16
2023-07-24T02:53:12.708Z,94.87
2023-07-24T02:55:43.535Z,95.18
2023-07-24T02:58:10.571Z,96.34
2023-07-24T03:00:37.266Z,96.50
2023-07-24T03:03:04.657Z,96.88
2023-07-24T03:05:32.147Z,96.60
2023-07-24T03:07:58.874Z,96.00
2023-07-24T03:10:25.560Z,95.95
2023-07-24T03:12:52.935Z,94.96
2023-07-24T03:15:20.422Z,94.74
2023-07-24T03:17:47.195Z,95.77
2023-07-24T03:20:18.946Z,96.23
2023-07-24T03:22:46.103Z,97.36
2023-07-24T03:25:13.142Z,97.85
2023-07-24T03:27:40.036Z,98.34
2023-07-24T03:30:07.552Z,98.32
2023-07-24T03:32:34.266Z,98.84
2023-07-24T03:35:01.069Z,100.00
2023-07-24T03:37:27.924Z,100.00
2023-07-24T03:39:54.846Z,100.00
2023-07-24T03:42:29.498Z,100.00
2023-07-24T03:44:56.737Z,100.00
2023-07-24T03:47:24.189Z,100.00
2023-07-24T03:49:51.519Z,100.00
2023-07-24T03:52:18.430Z,100.00
2023-07-24T03:54:46.225Z,100.00
2023-07-24T03:57:13.080Z,100.00
2023-07-24T03:59:39.854Z,100.00
2023-07-24T04:02:08.532Z,100.00
2023-07-24T04:04:38.023Z,100.00
2023-07-24T04:07:05.305Z,100.00
2023-07-24T04:09:32.052Z,100.00
2023-07-24T04:11:58.867Z,100.00
2023-07-24T04:14:25.627Z,100.00
2023-07-24T04:16:52.449Z,100.00
2023-07-24T04:19:19.215Z,100.00
2023-07-24T04:21:45.921Z,100.00
2023-07-24T04:24:12.625Z,100.00
2023-07-24T04:26:41.023Z,100.00
2023-07-24T04:29:08.346Z,100.00
2023-07-24T04:31:35.168Z,100.00
2023-07-24T04:34:01.868Z,100.00
2023-07-24T04:36:28.726Z,100.00
2023-07-24T04:38:55.822Z,100.00
2023-07-24T04:41:22.546Z,100.00
2023-07-24T04:43:49.253Z,100.00
2023-07-24T04:46:16.146Z,100.00
2023-07-24T04:48:42.858Z,100.00
2023-07-24T04:51:09.612Z,100.00
2023-07-24T04:53:36.281Z,100.00
2023-07-24T04:56:03.072Z,100.00
2023-07-24T04:58:29.758Z,100.00
2023-07-24T05:00:56.458Z,100.00
2023-07-24T05:03:23.246Z,100.00
2023-07-24T05:05:55.047Z,100.00
2023-07-24T05:08:21.744Z,100.00
2023-07-24T05:10:48.515Z,100.00
2023-07-24T05:13:15.362Z,100.00
2023-07-24T05:15:42.151Z,100.00
2023-07-24T05:18:08.843Z,100.00
2023-07-24T05:20:35.555Z,100.00
2023-07-24T05:23:02.274Z,100.00
2023-07-24T05:25:29.091Z,100.00
2023-07-24T05:27:55.839Z,100.00
2023-07-24T05:30:22.590Z,100.00
2023-07-24T05:32:49.447Z,100.00
2023-07-24T05:35:16.333Z,100.00
2023-07-24T05:37:43.067Z,100.00
2023-07-24T05:40:11.006Z,100.00
2023-07-24T05:42:42.640Z,100.00
2023-07-24T05:45:09.800Z,100.00
2023-07-24T05:47:36.556Z,100.00
2023-07-24T05:50:03.545Z,100.00
2023-07-24T05:52:30.229Z,100.00
2023-07-24T05:54:56.953Z,100.00
2023-07-24T05:57:23.670Z,100.00
2023-07-24T05:59:51.913Z,100.00
2023-07-24T06:02:18.886Z,100.00
2023-07-24T06:04:45.711Z,100.00
2023-07-24T06:07:12.489Z,100.00
2023-07-24T06:09:39.227Z,100.00
2023-07-24T06:12:06.176Z,100.00
2023-07-24T06:14:32.863Z,100.00
2023-07-24T06:16:59.574Z,100.00
2023-07-24T06:19:26.352Z,100.00
2023-07-24T06:21:53.085Z,100.00
2023-07-24T06:24:19.831Z,100.00
2023-07-24T06:26:46.568Z,100.00
2023-07-24T06:29:13.365Z,100.00
2023-07-24T06:31:40.193Z,100.00
2023-07-24T06:34:07.017Z,100.00
2023-07-24T06:36:33.807Z,99.90
2023-07-24T06:39:00.518Z,98.49
2023-07-24T06:41:27.312Z,98.42
2023-07-24T06:43:54.265Z,98.48
2023-07-24T06:46:21.074Z,98.49
2023-07-24T06:48:47.787Z,99.68
2023-07-24T06:51:14.523Z,100.00
2023-07-24T06:53:41.204Z,100.00
2023-07-24T06:56:07.938Z,100.00
2023-07-24T06:58:34.728Z,100.00
2023-07-24T07:01:01.420Z,100.00
2023-07-24T07:03:28.218Z,100.00
2023-07-24T07:06:00.490Z,100.00
2023-07-24T07:08:27.418Z,100.00
2023-07-24T07:10:58.259Z,100.00
2023-07-24T07:13:24.978Z,100.00
2023-07-24T07:15:51.792Z,100.00
2023-07-24T07:18:18.811Z,100.00
2023-07-24T07:20:50.042Z,100.00
2023-07-24T07:23:16.946Z,100.00
2023-07-24T07:25:46.230Z,100.00
2023-07-24T07:28:17.406Z,100.00
2023-07-24T07:30:46.218Z,100.00
2023-07-24T07:33:13.145Z,100.00
2023-07-24T07:35:39.841Z,100.00
2023-07-24T07:38:06.553Z,100.00
2023-07-24T07:40:33.280Z,100.00
2023-07-24T07:43:00.082Z,100.00
2023-07-24T07:45:26.832Z,100.00
2023-07-24T07:47:54.587Z,100.00
2023-07-24T07:50:21.520Z,100.00
2023-07-24T07:52:57.452Z,100.00
2023-07-24T07:55:24.216Z,100.00
2023-07-24T07:57:50.890Z,100.00
2023-07-24T08:00:17.894Z,100.00
2023-07-24T08:02:44.679Z,98.83
2023-07-24T08:05:20.645Z,97.29
2023-07-24T08:07:48.250Z,94.07
2023-07-24T08:10:16.829Z,92.81
2023-07-24T08:12:44.939Z,91.16
2023-07-24T08:15:12.139Z,89.47
2023-07-24T08:17:39.126Z,86.50
2023-07-24T08:20:06.594Z,86.39
2023-07-24T08:22:33.465Z,85.31
2023-07-24T08:25:00.330Z,84.05
2023-07-24T08:27:27.237Z,81.74
2023-07-24T08:29:54.201Z,81.47
2023-07-24T08:32:21.523Z,80.04
2023-07-24T08:34:48.501Z,76.47
2023-07-24T08:37:15.211Z,70.84
2023-07-24T08:39:42.769Z,67.72
2023-07-24T08:42:13.799Z,67.01
2023-07-24T08:44:41.052Z,66.35
2023-07-24T08:47:11.550Z,66.11
2023-07-24T08:49:41.426Z,66.23
2023-07-24T08:52:12.382Z,66.23
2023-07-24T08:54:41.423Z,62.92
2023-07-24T08:57:08.726Z,60.29
2023-07-24T09:02:03.148Z,56.61
2023-07-24T09:04:30.394Z,55.43
2023-07-24T09:06:59.215Z,55.28
2023-07-24T09:09:32.431Z,55.77
2023-07-24T09:12:00.886Z,55.91
2023-07-24T09:14:32.683Z,54.77
2023-07-24T09:17:05.767Z,52.30
2023-07-24T09:19:32.965Z,51.65
2023-07-24T09:22:10.171Z,50.26
2023-07-24T09:24:37.542Z,51.39
2023-07-24T09:27:07.969Z,52.44
2023-07-24T09:29:36.256Z,53.45
2023-07-24T09:32:03.184Z,54.63
2023-07-24T09:34:30.022Z,55.54
2023-07-24T09:36:56.959Z,57.87
2023-07-24T09:39:29.970Z,58.15
2023-07-24T09:42:07.445Z,58.95
2023-07-24T09:44:34.261Z,59.23
2023-07-24T09:47:24.653Z,59.47
2023-07-24T09:49:49.343Z,60.21
2023-07-24T09:52:19.853Z,60.72
2023-07-24T09:54:57.476Z,62.33
2023-07-24T09:57:26.209Z,65.15
2023-07-24T09:59:54.701Z,68.26
2023-07-24T10:02:22.671Z,69.00
2023-07-24T10:04:50.897Z,70.61
2023-07-24T10:07:22.766Z,73.69
2023-07-24T10:09:53.909Z,76.09
2023-07-24T10:12:21.485Z,79.34
2023-07-24T10:14:49.592Z,83.44
2023-07-24T10:17:35.929Z,85.52
2023-07-24T10:20:10.634Z,90.10
2023-07-24T10:22:42.574Z,93.40
2023-07-24T10:25:11.133Z,96.75
2023-07-24T10:27:45.038Z,98.55
2023-07-24T10:30:27.456Z,100.00
2023-07-24T10:33:21.922Z,100.00
2023-07-24T10:35:55.923Z,100.00
2023-07-24T10:38:39.917Z,100.00
2023-07-24T10:41:08.879Z,100.00
2023-07-24T10:43:44.536Z,100.00
2023-07-24T10:46:13.985Z,100.00
2023-07-24T10:48:52.774Z,100.00
2023-07-24T10:51:19.707Z,100.00
2023-07-24T10:53:49.010Z,100.00
2023-07-24T10:56:17.221Z,100.00
2023-07-24T10:58:44.385Z,100.00
2023-07-24T11:01:12.249Z,100.00
2023-07-24T11:03:43.225Z,100.00
2023-07-24T11:06:20.713Z,100.00
2023-07-24T11:08:59.283Z,100.00
2023-07-24T11:11:34.439Z,100.00
2023-07-24T11:14:03.007Z,100.00
2023-07-24T11:16:32.626Z,100.00
2023-07-24T11:18:59.473Z,100.00
2023-07-24T11:21:26.550Z,100.00
2023-07-24T11:23:55.497Z,100.00
2023-07-24T11:26:27.457Z,100.00
2023-07-24T11:28:54.681Z,100.00
2023-07-24T11:31:22.196Z,100.00
2023-07-24T11:33:51.528Z,100.00
2023-07-24T11:36:18.830Z,100.00
2023-07-24T11:38:49.807Z,100.00
2023-07-24T11:41:18.247Z,100.00
2023-07-24T11:43:49.332Z,100.00
2023-07-24T11:46:27.209Z,100.00
2023-07-24T11:48:56.987Z,100.00
2023-07-24T11:51:25.783Z,100.00
2023-07-24T11:53:52.634Z,100.00
2023-07-24T11:56:20.616Z,100.00
2023-07-24T11:58:47.428Z,100.00
2023-07-24T12:01:14.851Z,100.00
2023-07-24T12:03:42.585Z,100.00
2023-07-24T12:06:18.743Z,100.00
2023-07-24T12:08:45.550Z,100.00
2023-07-24T12:11:21.917Z,100.00
2023-07-24T12:13:51.215Z,100.00
2023-07-24T12:16:19.046Z,100.00
2023-07-24T12:18:45.866Z,100.00
2023-07-24T12:21:12.566Z,100.00
2023-07-24T12:23:39.266Z,100.00
2023-07-24T12:26:06.145Z,100.00
2023-07-24T12:28:33.136Z,100.00
2023-07-24T12:30:59.882Z,100.00
2023-07-24T12:33:26.582Z,100.00
2023-07-24T12:35:54.043Z,100.00
2023-07-24T12:38:20.863Z,100.00
2023-07-24T12:40:47.643Z,100.00
2023-07-24T12:43:16.637Z,100.00
2023-07-24T12:45:43.528Z,100.00
2023-07-24T12:48:11.028Z,100.00
2023-07-24T12:50:37.899Z,100.00
2023-07-24T12:53:05.443Z,100.00
2023-07-24T12:55:35.864Z,100.00
2023-07-24T12:58:04.315Z,100.00
2023-07-24T13:00:31.346Z,100.00
2023-07-24T13:02:58.255Z,100.00
2023-07-24T13:05:25.078Z,100.00
2023-07-24T13:07:51.720Z,100.00
2023-07-24T13:10:18.491Z,100.00
2023-07-24T13:12:45.697Z,100.00
2023-07-24T13:15:12.423Z,100.00
2023-07-24T13:17:39.128Z,100.00
2023-07-24T13:20:06.616Z,100.00
2023-07-24T13:22:33.315Z,100.00
2023-07-24T13:25:00.002Z,100.00
2023-07-24T13:27:26.728Z,100.00
2023-07-24T13:29:53.379Z,100.00
2023-07-24T13:32:20.183Z,100.00
2023-07-24T13:34:48.554Z,100.00
2023-07-24T13:37:15.296Z,100.00
2023-07-24T13:39:42.015Z,100.00
2023-07-24T13:42:08.698Z,100.00
2023-07-24T13:44:35.419Z,100.00
2023-07-24T13:47:02.162Z,100.00
2023-07-24T13:49:29.073Z,100.00
2023-07-24T13:51:55.790Z,100.00
2023-07-24T13:54:22.467Z,100.00
2023-07-24T13:56:49.222Z,100.00
2023-07-24T13:59:16.071Z,100.00
2023-07-24T14:01:42.846Z,100.00
2023-07-24T14:04:09.751Z,100.00
2023-07-24T14:06:36.500Z,100.00
2023-07-24T14:09:04.422Z,100.00
2023-07-24T14:11:31.310Z,100.00
2023-07-24T14:13:58.192Z,100.00
2023-07-24T14:16:24.933Z,100.00
2023-07-24T14:18:51.800Z,100.00
2023-07-24T14:21:18.742Z,100.00
2023-07-24T14:23:45.459Z,100.00
2023-07-24T14:26:12.223Z,100.00
2023-07-24T14:28:39.072Z,100.00
2023-07-24T14:31:06.541Z,100.00
2023-07-24T14:33:33.264Z,100.00
2023-07-24T14:35:59.936Z,100.00
2023-07-24T14:38:26.640Z,100.00
2023-07-24T14:40:53.327Z,100.00
2023-07-24T14:43:20.008Z,100.00
2023-07-24T14:45:47.152Z,100.00
2023-07-24T14:48:15.751Z,100.00
2023-07-24T14:50:42.601Z,100.00
2023-07-24T14:53:09.259Z,100.00
2023-07-24T14:55:36.065Z,100.00
2023-07-24T14:58:02.985Z,100.00
2023-07-24T15:00:32.768Z,100.00
2023-07-24T15:02:59.644Z,100.00
2023-07-24T15:05:26.442Z,100.00
2023-07-24T15:07:53.092Z,100.00
2023-07-24T15:10:19.885Z,100.00
2023-07-24T15:12:46.618Z,100.00
2023-07-24T15:15:20.064Z,100.00
2023-07-24T15:17:46.857Z,100.00
2023-07-24T15:20:15.624Z,100.00
2023-07-24T15:22:42.299Z,100.00
2023-07-24T15:25:09.250Z,100.00
2023-07-24T15:27:36.023Z,100.00
2023-07-24T15:30:02.847Z,100.00
2023-07-24T15:32:29.566Z,100.00
2023-07-24T15:34:56.346Z,100.00
2023-07-24T15:37:23.119Z,100.00
2023-07-24T15:39:49.848Z,100.00
2023-07-24T15:42:16.585Z,100.00
2023-07-24T15:44:43.270Z,100.00
2023-07-24T15:47:10.074Z,100.00
2023-07-24T15:49:36.768Z,100.00
2023-07-24T15:52:04.121Z,100.00
2023-07-24T15:54:30.924Z,100.00
2023-07-24T15:56:57.623Z,100.00
2023-07-24T15:59:24.479Z,100.00
2023-07-24T16:01:51.803Z,100.00
2023-07-24T16:04:21.593Z,100.00
2023-07-24T16:06:49.292Z,100.00
2023-07-24T16:09:15.940Z,100.00
2023-07-24T16:11:44.819Z,100.00
2023-07-24T16:14:12.810Z,100.00
2023-07-24T16:16:39.510Z,100.00
2023-07-24T16:19:15.378Z,100.00
2023-07-24T16:21:43.231Z,100.00
2023-07-24T16:24:10.485Z,100.00
2023-07-24T16:26:37.795Z,100.00
2023-07-24T16:29:07.725Z,100.00
2023-07-24T16:31:36.258Z,100.00
2023-07-24T16:34:04.178Z,100.00
2023-07-24T16:36:39.710Z,100.00
2023-07-24T16:39:07.239Z,100.00
2023-07-24T16:41:34.550Z,100.00
2023-07-24T16:44:03.244Z,100.00
2023-07-24T16:46:30.637Z,100.00
2023-07-24T16:48:57.377Z,100.00
2023-07-24T16:51:24.104Z,100.00
2023-07-24T16:53:50.832Z,100.00
2023-07-24T16:56:17.566Z,100.00
2023-07-24T16:58:44.258Z,100.00
2023-07-24T17:01:11.068Z,100.00
2023-07-24T17:03:37.792Z,100.00
2023-07-24T17:06:04.522Z,100.00
2023-07-24T17:08:32.268Z,100.00
2023-07-24T17:10:59.127Z,100.00
2023-07-24T17:13:25.932Z,100.00
2023-07-24T17:15:52.876Z,100.00
2023-07-24T17:18:19.566Z,100.00
2023-07-24T17:20:46.285Z,100.00
2023-07-24T17:23:12.951Z,100.00
2023-07-24T17:25:40.965Z,100.00
2023-07-24T17:28:08.000Z,100.00
2023-07-24T17:30:35.173Z,100.00
2023-07-24T17:33:04.874Z,100.00
2023-07-24T17:35:31.988Z,100.00
2023-07-24T17:37:58.696Z,100.00
2023-07-24T17:40:25.435Z,100.00
2023-07-24T17:42:54.820Z,100.00
2023-07-24T17:45:21.879Z,100.00
2023-07-24T17:47:48.713Z,100.00
2023-07-24T17:50:15.556Z,100.00
2023-07-24T17:52:42.276Z,100.00
2023-07-24T17:55:09.404Z,100.00
2023-07-24T17:57:36.154Z,100.00
2023-07-24T18:00:04.121Z,100.00
2023-07-24T18:02:31.866Z,100.00
2023-07-24T18:04:58.588Z,100.00
2023-07-24T18:07:25.286Z,100.00
2023-07-24T18:09:51.925Z,100.00
2023-07-24T18:12:19.238Z,100.00
2023-07-24T18:14:46.016Z,100.00
2023-07-24T18:17:12.700Z,100.00
2023-07-24T18:19:39.388Z,100.00
2023-07-24T18:22:06.155Z,100.00
2023-07-24T18:24:32.957Z,100.00
2023-07-24T18:26:59.672Z,100.00
2023-07-24T18:29:26.403Z,100.00
2023-07-24T18:31:54.290Z,100.00
2023-07-24T18:34:21.019Z,100.00
2023-07-24T18:36:47.666Z,100.00
2023-07-24T18:39:14.419Z,100.00
2023-07-24T18:41:41.096Z,100.00
2023-07-24T18:44:07.821Z,100.00
2023-07-24T18:46:34.550Z,100.00
2023-07-24T18:49:01.294Z,100.00
2023-07-24T18:51:28.001Z,100.00
2023-07-24T18:53:54.711Z,100.00
2023-07-24T18:56:21.987Z,100.00
2023-07-24T18:58:50.357Z,100.00
2023-07-24T19:01:17.121Z,100.00
2023-07-24T19:03:44.444Z,100.00
2023-07-24T19:06:11.311Z,100.00
2023-07-24T19:08:38.040Z,100.00
2023-07-24T19:11:04.929Z,100.00
2023-07-24T19:13:35.550Z,100.00
2023-07-24T19:16:03.564Z,100.00
2023-07-24T19:18:30.267Z,100.00
2023-07-24T19:20:56.956Z,100.00
2023-07-24T19:23:23.697Z,100.00
2023-07-24T19:25:50.405Z,100.00
2023-07-24T19:28:17.070Z,100.00
2023-07-24T19:30:43.819Z,100.00
2023-07-24T19:33:11.073Z,100.00
2023-07-24T19:35:38.809Z,100.00
2023-07-24T19:38:05.696Z,100.00
2023-07-24T19:40:32.455Z,100.00
2023-07-24T19:42:59.152Z,100.00
2023-07-24T19:45:27.575Z,100.00
2023-07-24T19:47:54.570Z,100.00
2023-07-24T19:50:21.402Z,100.00
2023-07-24T19:52:50.143Z,100.00
2023-07-24T19:55:17.160Z,100.00
2023-07-24T19:57:46.419Z,100.00
2023-07-24T20:00:13.620Z,100.00
2023-07-24T20:02:40.992Z,100.00
2023-07-24T20:05:08.273Z,100.00
2023-07-24T20:07:35.001Z,100.00
2023-07-24T20:10:01.811Z,100.00
2023-07-24T20:12:28.513Z,100.00
2023-07-24T20:14:55.204Z,100.00
2023-07-24T20:17:21.963Z,100.00
2023-07-24T20:19:48.689Z,100.00
2023-07-24T20:22:15.389Z,100.00
2023-07-24T20:24:42.101Z,100.00
2023-07-24T20:27:08.878Z,100.00
2023-07-24T20:29:36.515Z,100.00
2023-07-24T20:32:03.626Z,100.00
2023-07-24T20:34:30.411Z,100.00
2023-07-24T20:36:57.134Z,100.00
2023-07-24T20:39:23.988Z,100.00
2023-07-24T20:41:50.705Z,100.00
2023-07-24T20:44:17.419Z,100.00
2023-07-24T20:46:44.162Z,100.00
2023-07-24T20:49:10.873Z,100.00
2023-07-24T20:51:37.556Z,100.00
2023-07-24T20:54:04.286Z,100.00
2023-07-24T20:56:31.019Z,100.00
2023-07-24T20:58:57.713Z,100.00
2023-07-24T21:01:24.662Z,100.00
2023-07-24T21:03:53.053Z,100.00
2023-07-24T21:06:19.820Z,100.00
2023-07-24T21:08:46.516Z,100.00
2023-07-24T21:11:13.257Z,100.00
2023-07-24T21:13:40.205Z,100.00
2023-07-24T21:16:07.041Z,100.00
2023-07-24T21:18:33.779Z,100.00
2023-07-24T21:21:01.957Z,100.00
2023-07-24T21:23:28.980Z,100.00
2023-07-24T21:25:56.764Z,100.00
2023-07-24T21:28:24.358Z,100.00
2023-07-24T21:30:51.857Z,100.00
2023-07-24T21:33:18.926Z,100.00
2023-07-24T21:35:45.790Z,100.00
2023-07-24T21:38:13.293Z,100.00
2023-07-24T21:40:40.931Z,100.00
2023-07-24T21:43:08.825Z,100.00
2023-07-24T21:45:35.820Z,100.00
2023-07-24T21:48:06.031Z,100.00
2023-07-24T21:50:33.024Z,100.00
2023-07-24T21:53:00.151Z,100.00
2023-07-24T21:55:26.844Z,100.00
2023-07-24T21:57:53.732Z,100.00
2023-07-24T22:00:20.511Z,100.00
2023-07-24T22:02:47.401Z,100.00
2023-07-24T22:05:14.302Z,100.00
2023-07-24T22:07:41.138Z,100.00
2023-07-24T22:10:08.402Z,100.00
2023-07-24T22:12:35.288Z,100.00
2023-07-24T22:15:02.132Z,100.00
2023-07-24T22:17:30.110Z,100.00
2023-07-24T22:19:57.158Z,100.00
2023-07-24T22:22:24.753Z,100.00
2023-07-24T22:24:51.734Z,100.00
2023-07-24T22:27:18.606Z,100.00
2023-07-24T22:29:45.680Z,100.00
2023-07-24T22:32:12.488Z,100.00
2023-07-24T22:34:39.349Z,100.00
2023-07-24T22:37:09.224Z,100.00
2023-07-24T22:39:36.039Z,100.00
2023-07-24T22:42:03.670Z,100.00
2023-07-24T22:44:30.361Z,100.00
2023-07-24T22:46:57.169Z,100.00
2023-07-24T22:49:24.814Z,100.00
2023-07-24T22:51:51.636Z,100.00
2023-07-24T22:54:18.422Z,100.00
2023-07-24T22:56:45.639Z,100.00
2023-07-24T22:59:24.705Z,100.00
2023-07-24T23:01:53.458Z,100.00
2023-07-24T23:04:23.638Z,100.00
2023-07-24T23:06:56.081Z,100.00
2023-07-24T23:09:23.221Z,100.00
2023-07-24T23:11:50.190Z,100.00
2023-07-24T23:14:16.947Z,100.00
2023-07-24T23:16:43.746Z,100.00
2023-07-24T23:19:10.671Z,100.00
2023-07-24T23:21:37.687Z,100.00
2023-07-24T23:24:05.081Z,100.00
2023-07-24T23:26:31.847Z,100.00
2023-07-24T23:28:59.715Z,100.00
2023-07-24T23:31:26.490Z,100.00
2023-07-24T23:33:53.355Z,100.00
2023-07-24T23:36:20.197Z,100.00
2023-07-24T23:38:47.037Z,100.00
2023-07-24T23:41:14.114Z,100.00
2023-07-24T23:43:40.999Z,100.00
2023-07-24T23:46:13.212Z,100.00
2023-07-24T23:48:40.822Z,100.00
2023-07-24T23:51:19.291Z,100.00
2023-07-24T23:53:46.848Z,100.00
2023-07-24T23:56:13.845Z,100.00
2023-07-24T23:58:40.828Z,100.00
